RYR8LT EPKK-LMML
Flight info
| Callsign | RYR8LT |
|---|---|
| Flight time | N/A |
| Altitude | 36000 |
| Route | BABKO DCT NIDOK DCT VEBAL DCT KATTI/N0443F370 DCT OBAXU DCT NELDA DCT DIRKA N982 GZO |
| Aircraft | B739/M-V/N |
Departure
| Time | N/A |
|---|---|
| Airport | Kraków John Paul II International Airport (EPKK) |
Arrival
| Time | 2026-04-30 19:50 |
|---|---|
| Airport | Malta International Airport (LMML) |
| Time | Latitude | Longitude | Altitude | Speed | Heading |
|---|---|---|---|---|---|
| 2026-04-30 18:36 | 43.43424 | 16.36631 | 36208 ft | 457 kts | 199° |
| 2026-04-30 18:37 | 43.34174 | 16.33419 | 36216 ft | 457 kts | 199° |
| 2026-04-30 18:37 | 43.28014 | 16.31284 | 36200 ft | 456 kts | 199° |
| 2026-04-30 18:38 | 43.21857 | 16.29156 | 36215 ft | 456 kts | 199° |
| 2026-04-30 18:38 | 43.15707 | 16.27034 | 36211 ft | 455 kts | 199° |
| 2026-04-30 18:39 | 43.09549 | 16.24914 | 36202 ft | 455 kts | 200° |
| 2026-04-30 18:39 | 43.03454 | 16.22814 | 36200 ft | 454 kts | 200° |
| 2026-04-30 18:40 | 42.97320 | 16.20713 | 36202 ft | 454 kts | 200° |
| 2026-04-30 18:40 | 42.91191 | 16.18618 | 36196 ft | 454 kts | 200° |
| 2026-04-30 18:41 | 42.85067 | 16.16527 | 36195 ft | 454 kts | 200° |
| 2026-04-30 18:41 | 42.78967 | 16.14448 | 36196 ft | 454 kts | 200° |
| 2026-04-30 18:42 | 42.72812 | 16.12354 | 36197 ft | 454 kts | 200° |
| 2026-04-30 18:42 | 42.63661 | 16.09250 | 36195 ft | 454 kts | 200° |
| 2026-04-30 18:45 | 42.29906 | 15.97988 | 36189 ft | 454 kts | 201° |
| 2026-04-30 18:46 | 42.23729 | 15.95953 | 36192 ft | 454 kts | 201° |
| 2026-04-30 18:46 | 42.18630 | 15.94275 | 36179 ft | 454 kts | 201° |
| 2026-04-30 18:47 | 42.11501 | 15.91934 | 36166 ft | 453 kts | 201° |
| 2026-04-30 18:47 | 42.05377 | 15.89928 | 36164 ft | 453 kts | 201° |
| 2026-04-30 18:48 | 41.99259 | 15.87927 | 36157 ft | 452 kts | 201° |
| 2026-04-30 18:48 | 41.93152 | 15.85934 | 36155 ft | 452 kts | 201° |
| 2026-04-30 18:49 | 41.88070 | 15.84278 | 36157 ft | 451 kts | 201° |
| 2026-04-30 18:49 | 41.81965 | 15.82293 | 36157 ft | 451 kts | 201° |
| 2026-04-30 18:50 | 41.75862 | 15.80311 | 36163 ft | 451 kts | 201° |
| 2026-04-30 18:50 | 41.69766 | 15.78338 | 36201 ft | 450 kts | 201° |
| 2026-04-30 18:51 | 41.63681 | 15.76371 | 36200 ft | 449 kts | 201° |
| 2026-04-30 18:51 | 41.57619 | 15.74415 | 36204 ft | 448 kts | 201° |
| 2026-04-30 18:52 | 41.51552 | 15.72462 | 36202 ft | 447 kts | 201° |
| 2026-04-30 18:52 | 41.45504 | 15.70518 | 36206 ft | 446 kts | 201° |
| 2026-04-30 18:53 | 41.39471 | 15.68582 | 36207 ft | 446 kts | 202° |
| 2026-04-30 18:53 | 41.33453 | 15.66655 | 36211 ft | 445 kts | 202° |
| 2026-04-30 18:54 | 41.27415 | 15.64725 | 36206 ft | 445 kts | 202° |
| 2026-04-30 18:54 | 41.21418 | 15.62812 | 36205 ft | 445 kts | 202° |
| 2026-04-30 18:55 | 41.15376 | 15.60888 | 36208 ft | 446 kts | 202° |
| 2026-04-30 18:55 | 41.06311 | 15.58008 | 36203 ft | 447 kts | 202° |
| 2026-04-30 18:56 | 40.97232 | 15.55133 | 36191 ft | 447 kts | 202° |
| 2026-04-30 18:57 | 40.88162 | 15.52265 | 36200 ft | 447 kts | 202° |
| 2026-04-30 18:57 | 40.82111 | 15.50360 | 36195 ft | 447 kts | 202° |
| 2026-04-30 18:58 | 40.73029 | 15.47508 | 36183 ft | 447 kts | 202° |
| 2026-04-30 18:59 | 40.63990 | 15.44674 | 36181 ft | 447 kts | 202° |
| 2026-04-30 19:00 | 40.51876 | 15.40889 | 36164 ft | 447 kts | 202° |
| 2026-04-30 19:01 | 40.39785 | 15.37126 | 36146 ft | 446 kts | 202° |
| 2026-04-30 19:02 | 40.30731 | 15.34317 | 36132 ft | 446 kts | 202° |
| 2026-04-30 19:03 | 40.18642 | 15.30577 | 36117 ft | 447 kts | 202° |
| 2026-04-30 19:04 | 40.06601 | 15.26867 | 36132 ft | 442 kts | 203° |
| 2026-04-30 19:05 | 39.94619 | 15.23188 | 36102 ft | 443 kts | 203° |
| 2026-04-30 19:06 | 39.82610 | 15.19513 | 36103 ft | 444 kts | 202° |
| 2026-04-30 19:06 | 39.73575 | 15.16757 | 36096 ft | 445 kts | 202° |
| 2026-04-30 19:07 | 39.64517 | 15.14002 | 36092 ft | 446 kts | 202° |
| 2026-04-30 19:08 | 39.52406 | 15.10330 | 36088 ft | 447 kts | 202° |
| 2026-04-30 19:09 | 39.43309 | 15.07581 | 36089 ft | 448 kts | 202° |
| 2026-04-30 19:09 | 39.37243 | 15.05752 | 36089 ft | 448 kts | 202° |
| 2026-04-30 19:10 | 39.25155 | 15.02117 | 36078 ft | 447 kts | 202° |
| 2026-04-30 19:11 | 39.16073 | 14.99394 | 36081 ft | 446 kts | 202° |
| 2026-04-30 19:12 | 39.10025 | 14.97585 | 36081 ft | 446 kts | 202° |
| 2026-04-30 19:12 | 39.03985 | 14.95781 | 36081 ft | 445 kts | 202° |
| 2026-04-30 19:13 | 38.91923 | 14.92188 | 36078 ft | 444 kts | 202° |
| 2026-04-30 19:14 | 38.85902 | 14.90399 | 36079 ft | 444 kts | 202° |
| 2026-04-30 19:14 | 38.79883 | 14.88614 | 36075 ft | 444 kts | 202° |
| 2026-04-30 19:15 | 38.73866 | 14.86832 | 36073 ft | 444 kts | 202° |
| 2026-04-30 19:15 | 38.64843 | 14.84166 | 36077 ft | 444 kts | 202° |
| 2026-04-30 19:16 | 38.58829 | 14.82393 | 36077 ft | 444 kts | 202° |
| 2026-04-30 19:17 | 38.49801 | 14.79738 | 36079 ft | 444 kts | 202° |
| 2026-04-30 19:17 | 38.40771 | 14.77088 | 36072 ft | 444 kts | 202° |
| 2026-04-30 19:18 | 38.31736 | 14.74444 | 36077 ft | 444 kts | 202° |
| 2026-04-30 19:19 | 38.25715 | 14.72686 | 36079 ft | 444 kts | 202° |
| 2026-04-30 19:19 | 38.16677 | 14.70052 | 36078 ft | 444 kts | 202° |
| 2026-04-30 19:20 | 38.10650 | 14.68300 | 36079 ft | 444 kts | 201° |
| 2026-04-30 19:20 | 38.04708 | 14.66586 | 36070 ft | 431 kts | 201° |
| 2026-04-30 19:21 | 38.01789 | 14.65743 | 36057 ft | 430 kts | 202° |
| 2026-04-30 19:21 | 37.95948 | 14.64046 | 35722 ft | 430 kts | 202° |
| 2026-04-30 19:22 | 37.90169 | 14.62376 | 34935 ft | 422 kts | 202° |
| 2026-04-30 19:22 | 37.81657 | 14.59919 | 33470 ft | 414 kts | 202° |
| 2026-04-30 19:23 | 37.73362 | 14.57531 | 32090 ft | 405 kts | 201° |
| 2026-04-30 19:24 | 37.67912 | 14.55965 | 31214 ft | 399 kts | 201° |
| 2026-04-30 19:24 | 37.65217 | 14.55191 | 30776 ft | 396 kts | 201° |
| 2026-04-30 19:24 | 37.59881 | 14.53661 | 29880 ft | 390 kts | 201° |
| 2026-04-30 19:25 | 37.59183 | 14.53461 | 29751 ft | 390 kts | 201° |
| 2026-04-30 19:26 | 37.58250 | 14.53193 | 29588 ft | 389 kts | 201° |
| 2026-04-30 19:26 | 37.55628 | 14.52443 | 29155 ft | 385 kts | 201° |
| 2026-04-30 19:27 | 37.50453 | 14.50964 | 28296 ft | 378 kts | 201° |
| 2026-04-30 19:27 | 37.45360 | 14.49509 | 27455 ft | 372 kts | 201° |
| 2026-04-30 19:28 | 37.42840 | 14.48789 | 27036 ft | 370 kts | 201° |
| 2026-04-30 19:28 | 37.37845 | 14.47364 | 26214 ft | 366 kts | 201° |
| 2026-04-30 19:29 | 37.32910 | 14.45958 | 25431 ft | 362 kts | 200° |
| 2026-04-30 19:29 | 37.30489 | 14.45268 | 25029 ft | 361 kts | 200° |
| 2026-04-30 19:30 | 37.23157 | 14.43185 | 23829 ft | 358 kts | 200° |
| 2026-04-30 19:30 | 37.18225 | 14.42205 | 22975 ft | 361 kts | 191° |
| 2026-04-30 19:31 | 37.13285 | 14.41786 | 22181 ft | 358 kts | 190° |
| 2026-04-30 19:31 | 37.10783 | 14.41582 | 21798 ft | 355 kts | 190° |
| 2026-04-30 19:31 | 37.05877 | 14.41149 | 21037 ft | 351 kts | 190° |
| 2026-04-30 19:32 | 37.03450 | 14.40924 | 20665 ft | 349 kts | 190° |
| 2026-04-30 19:32 | 37.01034 | 14.40697 | 20294 ft | 347 kts | 190° |
| 2026-04-30 19:32 | 36.98630 | 14.40469 | 19909 ft | 346 kts | 190° |
| 2026-04-30 19:32 | 36.96233 | 14.40241 | 19548 ft | 345 kts | 190° |
| 2026-04-30 19:33 | 36.93844 | 14.40014 | 19185 ft | 344 kts | 190° |
| 2026-04-30 19:33 | 36.91463 | 14.39789 | 18813 ft | 343 kts | 190° |
| 2026-04-30 19:33 | 36.89890 | 14.39640 | 18565 ft | 342 kts | 189° |
| 2026-04-30 19:33 | 36.87519 | 14.39416 | 18172 ft | 341 kts | 189° |
| 2026-04-30 19:34 | 36.84380 | 14.38969 | 17623 ft | 337 kts | 195° |
| 2026-04-30 19:34 | 36.82858 | 14.38635 | 17373 ft | 335 kts | 196° |
| 2026-04-30 19:34 | 36.78311 | 14.37533 | 16616 ft | 331 kts | 196° |
| 2026-04-30 19:35 | 36.76060 | 14.36990 | 16249 ft | 330 kts | 196° |
| 2026-04-30 19:35 | 36.73072 | 14.36285 | 15767 ft | 328 kts | 196° |
| 2026-04-30 19:35 | 36.70836 | 14.35765 | 15406 ft | 327 kts | 195° |
| 2026-04-30 19:35 | 36.69326 | 14.35416 | 15166 ft | 326 kts | 195° |
| 2026-04-30 19:36 | 36.67100 | 14.34905 | 14802 ft | 325 kts | 195° |
| 2026-04-30 19:36 | 36.64880 | 14.34396 | 14449 ft | 324 kts | 195° |
| 2026-04-30 19:36 | 36.60476 | 14.33389 | 13707 ft | 323 kts | 195° |
| 2026-04-30 19:37 | 36.58267 | 14.32885 | 13311 ft | 323 kts | 195° |
| 2026-04-30 19:37 | 36.56061 | 14.32382 | 12933 ft | 321 kts | 195° |
| 2026-04-30 19:37 | 36.54315 | 14.31984 | 12633 ft | 320 kts | 194° |
| 2026-04-30 19:38 | 36.52784 | 14.31635 | 12387 ft | 319 kts | 194° |
| 2026-04-30 19:38 | 36.50625 | 14.31159 | 12014 ft | 312 kts | 191° |
| 2026-04-30 19:39 | 36.48463 | 14.31233 | 11707 ft | 311 kts | 174° |
| 2026-04-30 19:39 | 36.46340 | 14.31713 | 11374 ft | 310 kts | 172° |
| 2026-04-30 19:39 | 36.44223 | 14.32223 | 11035 ft | 310 kts | 172° |
| 2026-04-30 19:39 | 36.42104 | 14.32731 | 10693 ft | 309 kts | 172° |
| 2026-04-30 19:40 | 36.39993 | 14.33230 | 10356 ft | 309 kts | 172° |
| 2026-04-30 19:40 | 36.37888 | 14.33719 | 10132 ft | 304 kts | 172° |
| 2026-04-30 19:40 | 36.35815 | 14.34195 | 9801 ft | 303 kts | 172° |
| 2026-04-30 19:40 | 36.33743 | 14.34667 | 9452 ft | 302 kts | 172° |
| 2026-04-30 19:41 | 36.31676 | 14.35135 | 9103 ft | 302 kts | 172° |
| 2026-04-30 19:41 | 36.29616 | 14.35600 | 8764 ft | 301 kts | 172° |
| 2026-04-30 19:41 | 36.27558 | 14.36064 | 8423 ft | 300 kts | 172° |
| 2026-04-30 19:41 | 36.25523 | 14.36522 | 8071 ft | 294 kts | 172° |
| 2026-04-30 19:42 | 36.23536 | 14.36970 | 7733 ft | 286 kts | 172° |
| 2026-04-30 19:42 | 36.21602 | 14.37406 | 7419 ft | 279 kts | 172° |
| 2026-04-30 19:42 | 36.19715 | 14.37830 | 7113 ft | 272 kts | 172° |
| 2026-04-30 19:42 | 36.17872 | 14.38244 | 6811 ft | 266 kts | 172° |
| 2026-04-30 19:43 | 36.16096 | 14.38642 | 6521 ft | 260 kts | 171° |
| 2026-04-30 19:43 | 36.14332 | 14.39038 | 6217 ft | 256 kts | 172° |
| 2026-04-30 19:43 | 36.12579 | 14.39424 | 5920 ft | 256 kts | 174° |
| 2026-04-30 19:44 | 36.09336 | 14.37971 | 5418 ft | 261 kts | 224° |
| 2026-04-30 19:44 | 36.08032 | 14.36419 | 5229 ft | 256 kts | 227° |
| 2026-04-30 19:44 | 36.06820 | 14.34892 | 5099 ft | 242 kts | 227° |
| 2026-04-30 19:44 | 36.05673 | 14.33449 | 4991 ft | 229 kts | 227° |
| 2026-04-30 19:45 | 36.04568 | 14.32079 | 4893 ft | 224 kts | 227° |
| 2026-04-30 19:45 | 36.03438 | 14.30691 | 4654 ft | 234 kts | 226° |
| 2026-04-30 19:45 | 36.02160 | 14.29432 | 4379 ft | 239 kts | 202° |
| 2026-04-30 19:45 | 36.00547 | 14.29308 | 4132 ft | 234 kts | 159° |
| 2026-04-30 19:46 | 35.99288 | 14.30471 | 3916 ft | 224 kts | 123° |
| 2026-04-30 19:46 | 35.98343 | 14.31989 | 3672 ft | 224 kts | 130° |
| 2026-04-30 19:46 | 35.97267 | 14.33402 | 3417 ft | 225 kts | 131° |
| 2026-04-30 19:46 | 35.96185 | 14.34771 | 3156 ft | 226 kts | 132° |
| 2026-04-30 19:47 | 35.95103 | 14.36130 | 3042 ft | 216 kts | 132° |
| 2026-04-30 19:47 | 35.94405 | 14.36998 | 3007 ft | 206 kts | 132° |
| 2026-04-30 19:47 | 35.93139 | 14.38562 | 2966 ft | 184 kts | 133° |
| 2026-04-30 19:47 | 35.92191 | 14.39720 | 2291 ft | 202 kts | 131° |
| 2026-04-30 19:48 | 35.91189 | 14.40968 | 1808 ft | 201 kts | 131° |
| 2026-04-30 19:48 | 35.90253 | 14.42133 | 1537 ft | 180 kts | 131° |
| 2026-04-30 19:48 | 35.89420 | 14.43171 | 1297 ft | 161 kts | 131° |
| 2026-04-30 19:48 | 35.88665 | 14.44112 | 1084 ft | 149 kts | 131° |
| 2026-04-30 19:49 | 35.87942 | 14.45005 | 842 ft | 147 kts | 130° |
| 2026-04-30 19:49 | 35.86502 | 14.46797 | 554 ft | 153 kts | 131° |
| 2026-04-30 19:49 | 35.85752 | 14.47740 | 349 ft | 154 kts | 131° |
| 2026-04-30 19:50 | 35.85041 | 14.48630 | 265 ft | 124 kts | 134° |
| 2026-04-30 19:50 | 35.84584 | 14.49192 | 258 ft | 61 kts | 135° |
| 2026-04-30 19:50 | 35.84364 | 14.49470 | 257 ft | 41 kts | 134° |
| 2026-04-30 19:50 | 35.84215 | 14.49655 | 255 ft | 18 kts | 134° |
| 2026-04-30 19:51 | 35.84215 | 14.49701 | 255 ft | 5 kts | 50° |
| 2026-04-30 19:51 | 35.84235 | 14.49710 | 255 ft | 2 kts | 351° |
| 2026-04-30 19:51 | 35.84249 | 14.49701 | 255 ft | 2 kts | 333° |
| 2026-04-30 19:51 | 35.84263 | 14.49693 | 245 ft | 3 kts | 337° |
| 2026-04-30 19:52 | 35.84289 | 14.49682 | 255 ft | 6 kts | 342° |
| 2026-04-30 19:52 | 35.84353 | 14.49659 | 256 ft | 13 kts | 344° |
| 2026-04-30 19:52 | 35.84456 | 14.49622 | 257 ft | 17 kts | 336° |
| 2026-04-30 19:52 | 35.84563 | 14.49534 | 258 ft | 15 kts | 346° |
| 2026-04-30 19:53 | 35.84631 | 14.49569 | 258 ft | 12 kts | 22° |
| 2026-04-30 19:53 | 35.84718 | 14.49535 | 258 ft | 16 kts | 311° |
| 2026-04-30 19:53 | 35.84805 | 14.49450 | 258 ft | 14 kts | 342° |
| 2026-04-30 19:53 | 35.84866 | 14.49454 | 258 ft | 0 kts | 4° |